Atwood, Illinois
Current Conditions -  °F | °C
As of 5:53 AM on Sunday 21 Dec 2014 (Local Time) from KCMI Reporting Station
Haze Haze  
Wind Chill: -3°   Ceiling: 3100
Heat Index:   Visibility: 6mi
Dew Point: -3°   Wind: 6mph
Humidity: 82%   Direction: 130°SE
Pressure: 30.24"   Gusts: NA
Location:  39.8°N, 88.46°W
Report Text: KCMI 211153Z 13005KT 6SM HZ OVC031 00/M03 A3024 RMK AO2 SLP248 T00001028 10000 21006 55000
Loading
Personal Weather Stations






























Interactive Weather Map New forecast layout! Learn more

10-Day Weather Forecast

Advertisements
Track Severe Weather on mobile